Fruitridge, California
Current Conditions -  °F | °C
As of 12:19 AM on Friday 28 Nov 2014 (Local Time) from KSAC Reporting Station
Moderate Fog Moderate Fog  
Wind Chill: 43°   Ceiling: 900
Heat Index: 43°   Visibility: 0.25mi
Dew Point: 41°   Wind: 0mph
Humidity: 93%   Direction: NA
Pressure: 30.06"   Gusts: NA
Location:  38.5351°N, 121.443°W
Report Text: KSAC 280819Z AUTO 00000KT 1/4SM FG VV009 06/05 A3006 RMK AO2
Loading
Personal Weather Stations






























Interactive Weather Map New forecast layout! Learn more

10-Day Weather Forecast

Advertisements
Track Severe Weather on mobile